sensor_id;sensor_type;location;lat;lon;timestamp;pressure;altitude;pressure_sealevel;temperature;humidity
68654;BME280;55636;51.108;13.622;2022-10-31T00:00:03;100748.97;;;12.04;65.85
68654;BME280;55636;51.108;13.622;2022-10-31T00:01:24;100749.19;;;12.02;65.84
68654;BME280;55636;51.108;13.622;2022-10-31T00:02:26;100745.59;;;12.02;65.80
68654;BME280;55636;51.108;13.622;2022-10-31T00:03:29;100750.56;;;12.00;65.86
68654;BME280;55636;51.108;13.622;2022-10-31T00:04:31;100745.88;;;12.00;65.87
68654;BME280;55636;51.108;13.622;2022-10-31T00:05:33;100746.97;;;11.99;65.93
68654;BME280;55636;51.108;13.622;2022-10-31T00:06:36;100748.06;;;11.98;65.82
68654;BME280;55636;51.108;13.622;2022-10-31T00:07:38;100748.06;;;11.98;65.70
68654;BME280;55636;51.108;13.622;2022-10-31T00:08:40;100745.28;;;11.98;65.92
68654;BME280;55636;51.108;13.622;2022-10-31T00:09:43;100748.31;;;11.97;65.68
68654;BME280;55636;51.108;13.622;2022-10-31T00:10:46;100746.63;;;11.96;65.83
68654;BME280;55636;51.108;13.622;2022-10-31T00:11:48;100744.72;;;11.96;65.63
68654;BME280;55636;51.108;13.622;2022-10-31T00:12:51;100751.09;;;11.97;65.68
68654;BME280;55636;51.108;13.622;2022-10-31T00:13:54;100744.13;;;11.94;65.91
68654;BME280;55636;51.108;13.622;2022-10-31T00:14:56;100752.97;;;11.91;66.03
68654;BME280;55636;51.108;13.622;2022-10-31T00:15:58;100743.81;;;11.91;65.99
68654;BME280;55636;51.108;13.622;2022-10-31T00:17:01;100751.28;;;11.90;65.87
68654;BME280;55636;51.108;13.622;2022-10-31T00:18:04;100746.03;;;11.89;66.07
68654;BME280;55636;51.108;13.622;2022-10-31T00:19:08;100755.41;;;11.88;66.11
68654;BME280;55636;51.108;13.622;2022-10-31T00:20:11;100760.97;;;11.88;65.90
68654;BME280;55636;51.108;13.622;2022-10-31T00:21:14;100758.19;;;11.88;66.07
68654;BME280;55636;51.108;13.622;2022-10-31T00:22:16;100757.59;;;11.85;65.87
68654;BME280;55636;51.108;13.622;2022-10-31T00:23:18;100759.28;;;11.87;65.97
68654;BME280;55636;51.108;13.622;2022-10-31T00:24:21;100761.22;;;11.86;66.05
68654;BME280;55636;51.108;13.622;2022-10-31T00:25:23;100758.72;;;11.84;66.00
68654;BME280;55636;51.108;13.622;2022-10-31T00:26:29;100754.28;;;11.83;66.24
68654;BME280;55636;51.108;13.622;2022-10-31T00:27:32;100761.72;;;11.83;66.14
68654;BME280;55636;51.108;13.622;2022-10-31T00:28:35;100760.91;;;11.82;66.16
68654;BME280;55636;51.108;13.622;2022-10-31T00:29:38;100759.22;;;11.81;66.04
68654;BME280;55636;51.108;13.622;2022-10-31T00:30:40;100759.47;;;11.80;66.10
68654;BME280;55636;51.108;13.622;2022-10-31T00:31:43;100757.81;;;11.79;66.01
68654;BME280;55636;51.108;13.622;2022-10-31T00:32:45;100758.88;;;11.78;66.06
68654;BME280;55636;51.108;13.622;2022-10-31T00:33:47;100765.28;;;11.78;66.10
68654;BME280;55636;51.108;13.622;2022-10-31T00:34:52;100770.81;;;11.78;66.11
68654;BME280;55636;51.108;13.622;2022-10-31T00:35:54;100768.56;;;11.75;66.39
68654;BME280;55636;51.108;13.622;2022-10-31T00:36:56;100766.63;;;11.76;66.19
68654;BME280;55636;51.108;13.622;2022-10-31T00:37:59;100768.00;;;11.73;66.31
68654;BME280;55636;51.108;13.622;2022-10-31T00:39:01;100766.31;;;11.72;66.50
68654;BME280;55636;51.108;13.622;2022-10-31T00:40:04;100760.78;;;11.72;66.32
68654;BME280;55636;51.108;13.622;2022-10-31T00:41:06;100769.34;;;11.71;66.36
68654;BME280;55636;51.108;13.622;2022-10-31T00:42:08;100768.53;;;11.70;66.55
68654;BME280;55636;51.108;13.622;2022-10-31T00:43:11;100770.69;;;11.68;66.41
68654;BME280;55636;51.108;13.622;2022-10-31T00:44:33;100764.91;;;11.69;66.37
68654;BME280;55636;51.108;13.622;2022-10-31T00:45:35;100764.06;;;11.69;66.51
68654;BME280;55636;51.108;13.622;2022-10-31T00:46:37;100763.22;;;11.68;66.43
68654;BME280;55636;51.108;13.622;2022-10-31T00:47:39;100762.38;;;11.68;66.41
68654;BME280;55636;51.108;13.622;2022-10-31T00:48:42;100766.25;;;11.67;66.53
68654;BME280;55636;51.108;13.622;2022-10-31T00:49:45;100770.97;;;11.66;66.55
68654;BME280;55636;51.108;13.622;2022-10-31T00:50:47;100765.69;;;11.65;66.49
68654;BME280;55636;51.108;13.622;2022-10-31T00:51:49;100770.63;;;11.63;66.58
68654;BME280;55636;51.108;13.622;2022-10-31T00:52:51;100770.63;;;11.63;66.32
68654;BME280;55636;51.108;13.622;2022-10-31T00:53:54;100759.81;;;11.61;66.41
68654;BME280;55636;51.108;13.622;2022-10-31T00:54:56;100768.94;;;11.62;66.63
68654;BME280;55636;51.108;13.622;2022-10-31T00:55:59;100760.91;;;11.60;66.75
68654;BME280;55636;51.108;13.622;2022-10-31T00:57:02;100770.31;;;11.59;66.79
68654;BME280;55636;51.108;13.622;2022-10-31T00:58:05;100767.78;;;11.58;66.77
68654;BME280;55636;51.108;13.622;2022-10-31T00:59:07;100766.97;;;11.57;66.56
68654;BME280;55636;51.108;13.622;2022-10-31T01:00:10;100768.88;;;11.57;66.88
68654;BME280;55636;51.108;13.622;2022-10-31T01:01:12;100765.56;;;11.55;66.64
68654;BME280;55636;51.108;13.622;2022-10-31T01:02:17;100761.66;;;11.56;66.60
68654;BME280;55636;51.108;13.622;2022-10-31T01:03:28;100768.31;;;11.55;66.67
68654;BME280;55636;51.108;13.622;2022-10-31T01:04:31;100764.69;;;11.54;66.79
68654;BME280;55636;51.108;13.622;2022-10-31T01:05:33;100766.66;;;11.54;66.51
68654;BME280;55636;51.108;13.622;2022-10-31T01:06:36;100766.66;;;11.54;66.78
68654;BME280;55636;51.108;13.622;2022-10-31T01:07:40;100764.13;;;11.52;66.78
68654;BME280;55636;51.108;13.622;2022-10-31T01:08:43;100773.53;;;11.51;66.79
68654;BME280;55636;51.108;13.622;2022-10-31T01:09:48;100768.00;;;11.51;66.68
68654;BME280;55636;51.108;13.622;2022-10-31T01:11:11;100780.97;;;11.50;66.67
68654;BME280;55636;51.108;13.622;2022-10-31T01:12:15;100778.22;;;11.50;66.58
68654;BME280;55636;51.108;13.622;2022-10-31T01:13:18;100778.22;;;11.50;66.55
68654;BME280;55636;51.108;13.622;2022-10-31T01:14:20;100779.31;;;11.49;66.81
68654;BME280;55636;51.108;13.622;2022-10-31T01:15:23;100780.41;;;11.48;66.74
68654;BME280;55636;51.108;13.622;2022-10-31T01:16:27;100777.06;;;11.46;66.67
68654;BME280;55636;51.108;13.622;2022-10-31T01:17:32;100764.34;;;11.45;66.79
68654;BME280;55636;51.108;13.622;2022-10-31T01:18:35;100772.38;;;11.47;66.84
68654;BME280;55636;51.108;13.622;2022-10-31T01:19:37;100775.41;;;11.45;67.00
68654;BME280;55636;51.108;13.622;2022-10-31T01:20:39;100776.22;;;11.46;66.81
68654;BME280;55636;51.108;13.622;2022-10-31T01:21:42;100773.72;;;11.44;66.86
68654;BME280;55636;51.108;13.622;2022-10-31T01:22:44;100773.72;;;11.44;67.01
68654;BME280;55636;51.108;13.622;2022-10-31T01:23:46;100769.25;;;11.43;66.80
68654;BME280;55636;51.108;13.622;2022-10-31T01:24:52;100772.28;;;11.42;67.06
68654;BME280;55636;51.108;13.622;2022-10-31T01:26:10;100774.19;;;11.41;67.10
68654;BME280;55636;51.108;13.622;2022-10-31T01:27:14;100771.69;;;11.40;67.06
68654;BME280;55636;51.108;13.622;2022-10-31T01:28:17;100777.22;;;11.40;67.01
68654;BME280;55636;51.108;13.622;2022-10-31T01:29:19;100777.47;;;11.38;67.11
68654;BME280;55636;51.108;13.622;2022-10-31T01:30:21;100780.25;;;11.38;67.14
68654;BME280;55636;51.108;13.622;2022-10-31T01:31:26;100777.72;;;11.36;66.94
68654;BME280;55636;51.108;13.622;2022-10-31T01:32:29;100769.44;;;11.36;67.11
68654;BME280;55636;51.108;13.622;2022-10-31T01:33:33;100780.50;;;11.36;66.89
68654;BME280;55636;51.108;13.622;2022-10-31T01:34:36;100778.81;;;11.35;67.04
68654;BME280;55636;51.108;13.622;2022-10-31T01:35:38;100785.44;;;11.34;67.22
68654;BME280;55636;51.108;13.622;2022-10-31T01:36:41;100781.84;;;11.34;67.19
68654;BME280;55636;51.108;13.622;2022-10-31T01:37:44;100780.16;;;11.33;67.15
68654;BME280;55636;51.108;13.622;2022-10-31T01:38:47;100777.41;;;11.33;67.19
68654;BME280;55636;51.108;13.622;2022-10-31T01:39:50;100774.63;;;11.33;67.04
68654;BME280;55636;51.108;13.622;2022-10-31T01:40:52;100780.44;;;11.31;67.31
68654;BME280;55636;51.108;13.622;2022-10-31T01:41:54;100776.81;;;11.31;67.07
68654;BME280;55636;51.108;13.622;2022-10-31T01:42:57;100781.50;;;11.30;67.07
68654;BME280;55636;51.108;13.622;2022-10-31T01:44:48;100785.97;;;11.31;67.10
68654;BME280;55636;51.108;13.622;2022-10-31T01:45:24;100779.00;;;11.29;67.25
68654;BME280;55636;51.108;13.622;2022-10-31T01:46:43;100775.16;;;11.30;67.12
68654;BME280;55636;51.108;13.622;2022-10-31T01:47:47;100785.38;;;11.29;67.14
68654;BME280;55636;51.108;13.622;2022-10-31T01:48:52;100778.41;;;11.27;67.15
68654;BME280;55636;51.108;13.622;2022-10-31T01:49:58;100786.72;;;11.27;67.13
68654;BME280;55636;51.108;13.622;2022-10-31T01:51:03;100779.53;;;11.26;67.18
68654;BME280;55636;51.108;13.622;2022-10-31T01:52:35;100782.28;;;11.26;67.16
68654;BME280;55636;51.108;13.622;2022-10-31T01:53:35;100783.63;;;11.23;67.29
68654;BME280;55636;51.108;13.622;2022-10-31T01:54:41;100783.63;;;11.23;67.17
68654;BME280;55636;51.108;13.622;2022-10-31T01:55:46;100778.34;;;11.22;67.15
68654;BME280;55636;51.108;13.622;2022-10-31T01:56:52;100782.78;;;11.23;67.21
68654;BME280;55636;51.108;13.622;2022-10-31T01:58:02;100778.34;;;11.22;67.40
68654;BME280;55636;51.108;13.622;2022-10-31T01:59:09;100785.81;;;11.21;67.25
68654;BME280;55636;51.108;13.622;2022-10-31T02:00:15;100777.50;;;11.21;67.36
68654;BME280;55636;51.108;13.622;2022-10-31T02:01:18;100783.31;;;11.19;67.44
68654;BME280;55636;51.108;13.622;2022-10-31T02:02:20;100777.78;;;11.19;67.41
68654;BME280;55636;51.108;13.622;2022-10-31T02:03:25;100774.16;;;11.19;67.28
68654;BME280;55636;51.108;13.622;2022-10-31T02:04:29;100784.38;;;11.18;67.12
68654;BME280;55636;51.108;13.622;2022-10-31T02:05:33;100782.72;;;11.17;67.26
68654;BME280;55636;51.108;13.622;2022-10-31T02:06:40;100784.66;;;11.17;67.27
68654;BME280;55636;51.108;13.622;2022-10-31T02:08:06;100780.22;;;11.16;67.40
68654;BME280;55636;51.108;13.622;2022-10-31T02:09:11;100783.22;;;11.14;67.36
68654;BME280;55636;51.108;13.622;2022-10-31T02:10:15;100784.91;;;11.15;67.44
68654;BME280;55636;51.108;13.622;2022-10-31T02:11:17;100781.28;;;11.15;67.25
68654;BME280;55636;51.108;13.622;2022-10-31T02:12:20;100780.47;;;11.14;67.33
68654;BME280;55636;51.108;13.622;2022-10-31T02:13:24;100791.53;;;11.14;67.27
68654;BME280;55636;51.108;13.622;2022-10-31T02:14:47;100790.66;;;11.14;67.35
68654;BME280;55636;51.108;13.622;2022-10-31T02:15:55;100781.56;;;11.13;67.20
68654;BME280;55636;51.108;13.622;2022-10-31T02:16:58;100786.25;;;11.13;67.35
68654;BME280;55636;51.108;13.622;2022-10-31T02:18:00;100783.72;;;11.11;67.46
68654;BME280;55636;51.108;13.622;2022-10-31T02:19:08;100786.50;;;11.11;67.57
68654;BME280;55636;51.108;13.622;2022-10-31T02:20:14;100786.50;;;11.11;67.51
68654;BME280;55636;51.108;13.622;2022-10-31T02:21:29;100792.00;;;11.11;67.45
68654;BME280;55636;51.108;13.622;2022-10-31T02:24:15;100787.81;;;11.09;67.39
68654;BME280;55636;51.108;13.622;2022-10-31T02:26:43;100788.94;;;11.08;67.50
68654;BME280;55636;51.108;13.622;2022-10-31T02:27:57;100795.56;;;11.07;67.43
68654;BME280;55636;51.108;13.622;2022-10-31T02:29:18;100793.06;;;11.05;67.38
68654;BME280;55636;51.108;13.622;2022-10-31T02:31:05;100794.13;;;11.04;67.45
68654;BME280;55636;51.108;13.622;2022-10-31T02:32:43;100793.28;;;11.03;67.34
68654;BME280;55636;51.108;13.622;2022-10-31T02:33:55;100795.22;;;11.03;67.35
68654;BME280;55636;51.108;13.622;2022-10-31T02:35:24;100800.19;;;11.01;67.74
68654;BME280;55636;51.108;13.622;2022-10-31T02:36:41;100799.31;;;11.00;67.59
68654;BME280;55636;51.108;13.622;2022-10-31T02:38:17;100804.28;;;10.98;67.50
68654;BME280;55636;51.108;13.622;2022-10-31T02:39:29;100796.00;;;10.98;67.41
68654;BME280;55636;51.108;13.622;2022-10-31T02:40:51;100792.91;;;10.95;67.72
68654;BME280;55636;51.108;13.622;2022-10-31T02:42:26;100804.22;;;10.93;67.67
68654;BME280;55636;51.108;13.622;2022-10-31T02:43:35;100801.66;;;10.92;67.52
68654;BME280;55636;51.108;13.622;2022-10-31T02:47:12;100804.69;;;10.90;67.78
68654;BME280;55636;51.108;13.622;2022-10-31T02:48:19;100801.09;;;10.90;67.64
68654;BME280;55636;51.108;13.622;2022-10-31T02:49:29;100803.88;;;10.90;67.70
68654;BME280;55636;51.108;13.622;2022-10-31T02:50:38;100795.84;;;10.88;67.68
68654;BME280;55636;51.108;13.622;2022-10-31T02:51:44;100800.50;;;10.88;67.67
68654;BME280;55636;51.108;13.622;2022-10-31T02:52:51;100798.00;;;10.86;67.77
68654;BME280;55636;51.108;13.622;2022-10-31T02:53:54;100798.00;;;10.86;67.70
68654;BME280;55636;51.108;13.622;2022-10-31T02:54:56;100799.94;;;10.85;67.61
68654;BME280;55636;51.108;13.622;2022-10-31T02:57:10;100801.84;;;10.85;67.64
68654;BME280;55636;51.108;13.622;2022-10-31T02:58:15;100800.41;;;10.82;67.74
68654;BME280;55636;51.108;13.622;2022-10-31T02:59:21;100805.69;;;10.84;67.89
68654;BME280;55636;51.108;13.622;2022-10-31T03:00:24;100811.47;;;10.82;67.74
68654;BME280;55636;51.108;13.622;2022-10-31T03:02:06;100811.72;;;10.81;67.61
68654;BME280;55636;51.108;13.622;2022-10-31T03:03:20;100813.41;;;10.82;67.79
68654;BME280;55636;51.108;13.622;2022-10-31T03:07:28;100805.88;;;10.77;67.80
68654;BME280;55636;51.108;13.622;2022-10-31T03:10:41;100799.50;;;10.77;67.78
68654;BME280;55636;51.108;13.622;2022-10-31T03:12:12;100803.63;;;10.74;67.86
68654;BME280;55636;51.108;13.622;2022-10-31T03:14:53;100811.31;;;10.72;67.86
68654;BME280;55636;51.108;13.622;2022-10-31T03:16:24;100810.72;;;10.70;67.85
68654;BME280;55636;51.108;13.622;2022-10-31T03:17:37;100807.13;;;10.69;67.83
68654;BME280;55636;51.108;13.622;2022-10-31T03:18:48;100808.22;;;10.68;67.89
68654;BME280;55636;51.108;13.622;2022-10-31T03:19:54;100815.66;;;10.68;67.72
68654;BME280;55636;51.108;13.622;2022-10-31T03:21:14;100816.75;;;10.67;68.08
68654;BME280;55636;51.108;13.622;2022-10-31T03:22:23;100809.78;;;10.64;67.75
68654;BME280;55636;51.108;13.622;2022-10-31T03:23:28;100807.28;;;10.63;67.85
68654;BME280;55636;51.108;13.622;2022-10-31T03:24:37;100810.03;;;10.63;68.11
68654;BME280;55636;51.108;13.622;2022-10-31T03:25:45;100813.88;;;10.62;67.85
68654;BME280;55636;51.108;13.622;2022-10-31T03:26:51;100813.88;;;10.62;67.89
68654;BME280;55636;51.108;13.622;2022-10-31T03:27:56;100798.66;;;10.59;68.02
68654;BME280;55636;51.108;13.622;2022-10-31T03:29:03;100814.16;;;10.60;68.00
68654;BME280;55636;51.108;13.622;2022-10-31T03:30:08;100812.72;;;10.58;68.17
68654;BME280;55636;51.108;13.622;2022-10-31T03:31:55;100808.88;;;10.59;68.01
68654;BME280;55636;51.108;13.622;2022-10-31T03:33:02;100815.22;;;10.59;67.98
68654;BME280;55636;51.108;13.622;2022-10-31T03:34:07;100816.59;;;10.57;68.09
68654;BME280;55636;51.108;13.622;2022-10-31T03:35:12;100814.66;;;10.57;68.13
68654;BME280;55636;51.108;13.622;2022-10-31T03:36:18;100812.16;;;10.56;68.02
68654;BME280;55636;51.108;13.622;2022-10-31T03:37:21;100825.09;;;10.55;68.16
68654;BME280;55636;51.108;13.622;2022-10-31T03:38:25;100816.81;;;10.55;68.11
68654;BME280;55636;51.108;13.622;2022-10-31T03:39:29;100810.47;;;10.55;68.04
68654;BME280;55636;51.108;13.622;2022-10-31T03:40:35;100817.06;;;10.53;68.02
68654;BME280;55636;51.108;13.622;2022-10-31T03:41:43;100813.47;;;10.53;68.15
68654;BME280;55636;51.108;13.622;2022-10-31T03:42:58;100818.16;;;10.52;68.11
68654;BME280;55636;51.108;13.622;2022-10-31T03:44:06;100820.09;;;10.52;68.21
68654;BME280;55636;51.108;13.622;2022-10-31T03:45:17;100824.78;;;10.51;67.98
68654;BME280;55636;51.108;13.622;2022-10-31T03:46:21;100821.16;;;10.51;68.05
68654;BME280;55636;51.108;13.622;2022-10-31T03:47:25;100827.56;;;10.51;68.20
68654;BME280;55636;51.108;13.622;2022-10-31T03:48:30;100825.88;;;10.50;68.05
68654;BME280;55636;51.108;13.622;2022-10-31T03:49:33;100823.09;;;10.50;68.12
68654;BME280;55636;51.108;13.622;2022-10-31T03:50:58;100818.66;;;10.49;68.12
68654;BME280;55636;51.108;13.622;2022-10-31T03:52:20;100826.13;;;10.49;68.27
68654;BME280;55636;51.108;13.622;2022-10-31T03:53:31;100827.19;;;10.48;68.33
68654;BME280;55636;51.108;13.622;2022-10-31T03:55:50;100828.28;;;10.47;68.12
68654;BME280;55636;51.108;13.622;2022-10-31T03:57:09;100830.22;;;10.46;68.23
68654;BME280;55636;51.108;13.622;2022-10-31T03:58:24;100833.81;;;10.47;68.10
68654;BME280;55636;51.108;13.622;2022-10-31T03:59:35;100829.63;;;10.44;68.33
68654;BME280;55636;51.108;13.622;2022-10-31T04:00:42;100836.81;;;10.45;68.20
68654;BME280;55636;51.108;13.622;2022-10-31T04:01:50;100832.63;;;10.43;68.33
68654;BME280;55636;51.108;13.622;2022-10-31T04:03:06;100827.09;;;10.43;68.12
68654;BME280;55636;51.108;13.622;2022-10-31T04:04:13;100829.88;;;10.43;68.08
68654;BME280;55636;51.108;13.622;2022-10-31T04:05:20;100830.94;;;10.42;68.23
68654;BME280;55636;51.108;13.622;2022-10-31T04:06:24;100835.03;;;10.39;68.07
68654;BME280;55636;51.108;13.622;2022-10-31T04:07:31;100833.34;;;10.38;68.21
68654;BME280;55636;51.108;13.622;2022-10-31T04:08:40;100833.34;;;10.38;68.06
68654;BME280;55636;51.108;13.622;2022-10-31T04:09:49;100834.22;;;10.39;68.15
68654;BME280;55636;51.108;13.622;2022-10-31T04:10:56;100832.53;;;10.38;68.29
68654;BME280;55636;51.108;13.622;2022-10-31T04:12:01;100841.66;;;10.38;68.19
68654;BME280;55636;51.108;13.622;2022-10-31T04:13:20;100833.63;;;10.36;68.25
68654;BME280;55636;51.108;13.622;2022-10-31T04:14:36;100833.88;;;10.35;68.15
68654;BME280;55636;51.108;13.622;2022-10-31T04:15:42;100838.53;;;10.34;68.09
68654;BME280;55636;51.108;13.622;2022-10-31T04:16:46;100832.19;;;10.34;68.04
68654;BME280;55636;51.108;13.622;2022-10-31T04:17:50;100829.69;;;10.32;68.06
68654;BME280;55636;51.108;13.622;2022-10-31T04:18:55;100832.69;;;10.31;68.13
68654;BME280;55636;51.108;13.622;2022-10-31T04:20:01;100829.06;;;10.30;68.13
68654;BME280;55636;51.108;13.622;2022-10-31T04:21:07;100830.41;;;10.28;68.16
68654;BME280;55636;51.108;13.622;2022-10-31T04:22:10;100833.16;;;10.28;68.09
68654;BME280;55636;51.108;13.622;2022-10-31T04:23:20;100830.66;;;10.26;67.97
68654;BME280;55636;51.108;13.622;2022-10-31T04:24:25;100827.06;;;10.26;67.91
68654;BME280;55636;51.108;13.622;2022-10-31T04:25:29;100837.50;;;10.24;67.84
68654;BME280;55636;51.108;13.622;2022-10-31T04:26:33;100835.84;;;10.23;67.84
68654;BME280;55636;51.108;13.622;2022-10-31T04:27:35;100844.13;;;10.23;67.91
68654;BME280;55636;51.108;13.622;2022-10-31T04:28:38;100836.94;;;10.22;67.82
68654;BME280;55636;51.108;13.622;2022-10-31T04:29:40;100838.84;;;10.21;67.82
68654;BME280;55636;51.108;13.622;2022-10-31T04:30:47;100843.53;;;10.20;67.81
68654;BME280;55636;51.108;13.622;2022-10-31T04:31:51;100844.38;;;10.21;67.83
68654;BME280;55636;51.108;13.622;2022-10-31T04:32:53;100836.59;;;10.18;67.96
68654;BME280;55636;51.108;13.622;2022-10-31T04:33:56;100834.66;;;10.18;67.86
68654;BME280;55636;51.108;13.622;2022-10-31T04:34:58;100843.19;;;10.17;67.87
68654;BME280;55636;51.108;13.622;2022-10-31T04:36:02;100842.38;;;10.16;67.87
68654;BME280;55636;51.108;13.622;2022-10-31T04:37:05;100843.19;;;10.17;67.97
68654;BME280;55636;51.108;13.622;2022-10-31T04:38:07;100846.16;;;10.15;67.96
68654;BME280;55636;51.108;13.622;2022-10-31T04:39:09;100846.16;;;10.15;67.90
68654;BME280;55636;51.108;13.622;2022-10-31T04:40:16;100843.66;;;10.14;67.93
68654;BME280;55636;51.108;13.622;2022-10-31T04:41:37;100840.28;;;10.12;68.02
68654;BME280;55636;51.108;13.622;2022-10-31T04:42:47;100851.34;;;10.12;67.74
68654;BME280;55636;51.108;13.622;2022-10-31T04:43:49;100845.81;;;10.12;67.76
68654;BME280;55636;51.108;13.622;2022-10-31T04:44:52;100849.66;;;10.11;67.90
68654;BME280;55636;51.108;13.622;2022-10-31T04:45:54;100844.13;;;10.11;67.95
68654;BME280;55636;51.108;13.622;2022-10-31T04:46:57;100845.47;;;10.08;67.88
68654;BME280;55636;51.108;13.622;2022-10-31T04:47:59;100843.56;;;10.09;67.89
68654;BME280;55636;51.108;13.622;2022-10-31T04:49:04;100849.31;;;10.07;67.87
68654;BME280;55636;51.108;13.622;2022-10-31T04:50:07;100842.13;;;10.06;68.00
68654;BME280;55636;51.108;13.622;2022-10-31T04:51:11;100849.53;;;10.06;67.93
68654;BME280;55636;51.108;13.622;2022-10-31T04:52:14;100851.47;;;10.05;67.99
68654;BME280;55636;51.108;13.622;2022-10-31T04:53:17;100840.69;;;10.03;68.02
68654;BME280;55636;51.108;13.622;2022-10-31T04:54:39;100840.94;;;10.02;68.15
68654;BME280;55636;51.108;13.622;2022-10-31T04:56:19;100845.59;;;10.01;67.88
68654;BME280;55636;51.108;13.622;2022-10-31T04:57:30;100850.31;;;10.01;68.27
68654;BME280;55636;51.108;13.622;2022-10-31T04:58:36;100847.78;;;9.99;68.00
68654;BME280;55636;51.108;13.622;2022-10-31T04:59:41;100847.78;;;9.99;68.22
68654;BME280;55636;51.108;13.622;2022-10-31T05:00:46;100845.25;;;9.98;68.14
68654;BME280;55636;51.108;13.622;2022-10-31T05:01:49;100847.19;;;9.97;68.02
68654;BME280;55636;51.108;13.622;2022-10-31T05:02:57;100849.13;;;9.97;68.08
68654;BME280;55636;51.108;13.622;2022-10-31T05:04:02;100847.69;;;9.94;68.13
68654;BME280;55636;51.108;13.622;2022-10-31T05:05:06;100852.34;;;9.94;68.22
68654;BME280;55636;51.108;13.622;2022-10-31T05:06:09;100849.84;;;9.92;68.22
68654;BME280;55636;51.108;13.622;2022-10-31T05:07:16;100849.00;;;9.92;68.12
68654;BME280;55636;51.108;13.622;2022-10-31T05:08:19;100845.41;;;9.91;68.27
68654;BME280;55636;51.108;13.622;2022-10-31T05:09:24;100855.59;;;9.91;68.05
68654;BME280;55636;51.108;13.622;2022-10-31T05:10:29;100853.94;;;9.90;68.17
68654;BME280;55636;51.108;13.622;2022-10-31T05:11:33;100855.84;;;9.89;68.20
68654;BME280;55636;51.108;13.622;2022-10-31T05:12:55;100853.34;;;9.87;68.36
68654;BME280;55636;51.108;13.622;2022-10-31T05:14:16;100850.59;;;9.87;68.42
68654;BME280;55636;51.108;13.622;2022-10-31T05:15:50;100854.44;;;9.86;68.33
68654;BME280;55636;51.108;13.622;2022-10-31T05:16:53;100847.22;;;9.85;68.37
68654;BME280;55636;51.108;13.622;2022-10-31T05:18:33;100856.31;;;9.86;68.45
68654;BME280;55636;51.108;13.622;2022-10-31T05:19:56;100846.63;;;9.83;68.38
68654;BME280;55636;51.108;13.622;2022-10-31T05:21:30;100855.13;;;9.82;68.28
68654;BME280;55636;51.108;13.622;2022-10-31T05:22:36;100843.28;;;9.81;68.36
68654;BME280;55636;51.108;13.622;2022-10-31T05:23:38;100858.16;;;9.80;68.65
68654;BME280;55636;51.108;13.622;2022-10-31T05:24:45;100851.81;;;9.80;68.45
68654;BME280;55636;51.108;13.622;2022-10-31T05:25:47;100848.19;;;9.79;68.33
68654;BME280;55636;51.108;13.622;2022-10-31T05:26:50;100853.13;;;9.77;68.36
68654;BME280;55636;51.108;13.622;2022-10-31T05:27:53;100850.38;;;9.77;68.42
68654;BME280;55636;51.108;13.622;2022-10-31T05:28:56;100854.19;;;9.76;68.31
68654;BME280;55636;51.108;13.622;2022-10-31T05:29:58;100858.88;;;9.76;68.41
68654;BME280;55636;51.108;13.622;2022-10-31T05:31:21;100850.84;;;9.74;68.48
68654;BME280;55636;51.108;13.622;2022-10-31T05:32:24;100859.13;;;9.74;68.28
68654;BME280;55636;51.108;13.622;2022-10-31T05:33:45;100854.91;;;9.71;68.27
68654;BME280;55636;51.108;13.622;2022-10-31T05:35:08;100856.84;;;9.71;68.25
68654;BME280;55636;51.108;13.622;2022-10-31T05:36:34;100851.59;;;9.69;68.09
68654;BME280;55636;51.108;13.622;2022-10-31T05:37:46;100859.00;;;9.69;68.09
68654;BME280;55636;51.108;13.622;2022-10-31T05:38:48;100862.84;;;9.68;68.02
68654;BME280;55636;51.108;13.622;2022-10-31T05:39:58;100860.31;;;9.66;67.92
68654;BME280;55636;51.108;13.622;2022-10-31T05:41:05;100859.75;;;9.64;67.93
68654;BME280;55636;51.108;13.622;2022-10-31T05:42:08;100860.00;;;9.63;67.84
68654;BME280;55636;51.108;13.622;2022-10-31T05:43:10;100856.63;;;9.61;68.03
68654;BME280;55636;51.108;13.622;2022-10-31T05:44:13;100866.84;;;9.60;67.99
68654;BME280;55636;51.108;13.622;2022-10-31T05:45:28;100863.22;;;9.60;67.94
68654;BME280;55636;51.108;13.622;2022-10-31T05:46:34;100868.97;;;9.58;67.80
68654;BME280;55636;51.108;13.622;2022-10-31T05:47:57;100863.72;;;9.57;67.76
68654;BME280;55636;51.108;13.622;2022-10-31T05:49:21;100862.28;;;9.54;67.82
68654;BME280;55636;51.108;13.622;2022-10-31T05:50:54;100873.56;;;9.52;67.89
68654;BME280;55636;51.108;13.622;2022-10-31T05:51:57;100870.78;;;9.52;67.77
68654;BME280;55636;51.108;13.622;2022-10-31T05:53:08;100873.75;;;9.51;67.75
68654;BME280;55636;51.108;13.622;2022-10-31T05:54:13;100874.00;;;9.49;67.76
68654;BME280;55636;51.108;13.622;2022-10-31T05:55:19;100869.81;;;9.47;67.80
68654;BME280;55636;51.108;13.622;2022-10-31T05:56:39;100877.25;;;9.46;67.89
68654;BME280;55636;51.108;13.622;2022-10-31T05:57:41;100870.06;;;9.45;67.78
68654;BME280;55636;51.108;13.622;2022-10-31T05:58:43;100873.91;;;9.44;67.76
68654;BME280;55636;51.108;13.622;2022-10-31T05:59:46;100876.91;;;9.43;67.69
68654;BME280;55636;51.108;13.622;2022-10-31T06:01:02;100880.72;;;9.42;67.70
68654;BME280;55636;51.108;13.622;2022-10-31T06:02:08;100873.56;;;9.41;67.69
68654;BME280;55636;51.108;13.622;2022-10-31T06:03:28;100884.81;;;9.39;67.73
68654;BME280;55636;51.108;13.622;2022-10-31T06:04:32;100881.47;;;9.37;67.94
68654;BME280;55636;51.108;13.622;2022-10-31T06:05:34;100880.59;;;9.36;67.84